Time;durP1;ratioP1;P1;durP2;ratioP2;P2;SDS_P1;SDS_P2;PMS_P1;PMS_P2;Temp;Humidity;BMP_temperature;BMP_pressure;BME280_temperature;BME280_humidity;BME280_pressure;Samples;Min_cycle;Max_cycle;Signal;HPM_P1;HPM_P2
2023/02/13 00:03:00;;;;;;;10.30;7.60;;;;;;;11.04;46.04;101715.15;145052;1260;98009;-80
2023/02/13 00:06:22;;;;;;;13.90;8.90;;;;;;;11.04;46.28;101712.17;144967;1261;97997;-81
2023/02/13 00:09:47;;;;;;;18.60;9.10;;;;;;;11.04;46.43;101710.27;144894;1257;99319;-80
2023/02/13 00:13:11;;;;;;;14.40;8.00;;;;;;;11.04;46.53;101716.70;144827;1257;99232;-81
2023/02/13 00:16:33;;;;;;;9.60;6.80;;;;;;;11.04;46.40;101721.93;144890;1260;99193;-81
2023/02/13 00:19:55;;;;;;;12.90;8.00;;;;;;;11.04;46.56;101715.84;145054;1262;97902;-81
2023/02/13 00:23:17;;;;;;;14.00;7.70;;;;;;;11.04;46.59;101706.77;144849;1260;110934;-82
2023/02/13 00:26:39;;;;;;;13.20;7.80;;;;;;;11.04;46.54;101705.57;144951;1260;98011;-82
2023/02/13 00:30:10;;;;;;;12.70;7.40;;;;;;;11.03;46.64;101702.05;144892;1261;111080;-82
2023/02/13 00:33:32;;;;;;;13.30;7.80;;;;;;;11.03;46.65;101701.34;145033;1256;97992;-82
2023/02/13 00:36:56;;;;;;;11.40;8.00;;;;;;;11.03;46.82;101693.66;144946;1257;97979;-83
2023/02/13 00:40:18;;;;;;;8.80;6.50;;;;;;;11.03;46.81;101698.55;145145;1262;99205;-82
2023/02/13 00:43:46;;;;;;;11.80;7.20;;;;;;;11.03;46.83;101702.55;145018;1256;99216;-82
2023/02/13 00:47:18;;;;;;;10.80;6.90;;;;;;;11.01;46.90;101706.99;145005;1256;111085;-82
2023/02/13 00:50:39;;;;;;;11.10;7.30;;;;;;;11.00;46.95;101709.39;145025;1257;110868;-82
2023/02/13 00:54:03;;;;;;;11.30;7.70;;;;;;;11.00;46.85;101707.45;144873;1260;112941;-81
2023/02/13 00:57:25;;;;;;;10.50;7.70;;;;;;;11.00;46.99;101702.09;144774;1256;98428;-82
2023/02/13 01:00:47;;;;;;;11.60;7.10;;;;;;;11.00;47.08;101697.77;145237;1257;98008;-82
2023/02/13 01:04:09;;;;;;;11.90;6.50;;;;;;;11.01;46.91;101699.33;144812;1261;103192;-82
2023/02/13 01:07:31;;;;;;;11.00;6.80;;;;;;;11.01;47.25;101713.27;145061;1261;97852;-82
2023/02/13 01:10:53;;;;;;;11.90;7.30;;;;;;;11.01;47.30;101709.80;144819;1271;98807;-81
2023/02/13 01:14:15;;;;;;;12.90;7.20;;;;;;;11.02;47.20;101705.45;144818;1261;108458;-82
2023/02/13 01:17:38;;;;;;;12.30;6.50;;;;;;;11.01;47.28;101703.54;144999;1260;97928;-82
2023/02/13 01:21:03;;;;;;;10.50;7.30;;;;;;;11.02;47.22;101701.11;144839;1278;98398;-82
2023/02/13 01:24:28;;;;;;;13.90;7.40;;;;;;;11.02;47.36;101697.99;145007;1256;97957;-82
2023/02/13 01:27:52;;;;;;;9.40;7.90;;;;;;;11.01;47.37;101695.00;145231;1262;97947;-82
2023/02/13 01:31:14;;;;;;;13.20;7.70;;;;;;;11.01;47.25;101694.83;145040;1262;97843;-82
2023/02/13 01:34:36;;;;;;;10.20;6.10;;;;;;;11.01;47.44;101687.35;145059;1259;97932;-82
2023/02/13 01:37:58;;;;;;;12.70;7.80;;;;;;;11.01;47.35;101682.14;145166;1259;97938;-81
2023/02/13 01:41:20;;;;;;;13.70;7.40;;;;;;;11.01;47.44;101688.73;145274;1256;99210;-82
2023/02/13 01:44:53;;;;;;;9.80;6.90;;;;;;;11.01;47.31;101689.76;144992;1259;97946;-82
2023/02/13 01:48:18;;;;;;;9.00;6.80;;;;;;;11.02;47.51;101691.36;145145;1260;111087;-81
2023/02/13 01:55:48;;;;;;;8.10;6.50;;;;;;;10.99;47.47;101688.48;144613;1265;111527;-81
2023/02/13 01:59:17;;;;;;;12.20;7.20;;;;;;;10.99;47.51;101690.05;144333;1278;112619;-82
2023/02/13 02:02:48;;;;;;;9.60;7.00;;;;;;;10.99;47.52;101690.38;144641;1265;111432;-81
2023/02/13 02:06:17;;;;;;;12.10;7.40;;;;;;;11.00;47.55;101694.09;144363;1265;112073;-82
2023/02/13 02:09:41;;;;;;;11.30;6.30;;;;;;;11.00;47.41;101694.26;144605;1265;112182;-81
2023/02/13 02:13:18;;;;;;;9.80;6.70;;;;;;;10.99;47.54;101690.38;144333;1266;112233;-82
2023/02/13 02:16:44;;;;;;;9.60;6.30;;;;;;;11.00;47.82;101696.34;144371;1265;112139;-82
2023/02/13 02:20:25;;;;;;;13.30;6.90;;;;;;;10.99;47.59;101695.95;144315;1262;111353;-82
2023/02/13 02:23:53;;;;;;;13.00;7.00;;;;;;;10.99;47.54;101694.21;144404;1266;111158;-82
2023/02/13 02:27:25;;;;;;;12.90;7.30;;;;;;;10.99;47.78;101695.40;144708;1259;112291;-82
2023/02/13 02:30:53;;;;;;;8.90;6.00;;;;;;;10.98;47.82;101696.27;144794;1265;111455;-81
2023/02/13 02:34:44;;;;;;;12.90;7.10;;;;;;;10.98;47.83;101690.70;144825;1259;111993;-82
2023/02/13 02:38:06;;;;;;;10.60;6.70;;;;;;;10.98;47.88;101687.88;144896;1259;111120;-82
2023/02/13 02:41:51;;;;;;;13.20;7.60;;;;;;;10.96;48.01;101685.38;144823;1260;97894;-82
2023/02/13 02:45:35;;;;;;;7.90;6.50;;;;;;;10.97;47.80;101688.73;145074;1257;111930;-82
2023/02/13 02:52:44;;;;;;;8.00;6.10;;;;;;;10.97;47.85;101695.52;144896;1259;112067;-82
2023/02/13 02:56:25;;;;;;;11.30;6.50;;;;;;;10.97;48.02;101696.55;144976;1259;110620;-84
2023/02/13 03:07:15;;;;;;;10.90;6.20;;;;;;;10.97;47.92;101706.48;144831;1257;112331;-82
2023/02/13 03:14:20;;;;;;;10.10;5.90;;;;;;;10.96;48.15;101707.98;145028;1259;111988;-82
2023/02/13 03:25:11;;;;;;;10.50;6.90;;;;;;;10.97;48.20;101706.96;144833;1259;111046;-82
2023/02/13 03:32:24;;;;;;;9.70;6.00;;;;;;;10.95;48.19;101690.57;144884;1260;111033;-81
2023/02/13 03:40:02;;;;;;;11.30;6.40;;;;;;;10.95;48.17;101689.84;145064;1257;109725;-81
2023/02/13 03:43:25;;;;;;;9.70;6.00;;;;;;;10.94;48.24;101688.96;144899;1259;112295;-82
2023/02/13 03:46:49;;;;;;;14.00;6.70;;;;;;;10.95;48.18;101695.41;144734;1262;98045;-83
2023/02/13 03:50:12;;;;;;;9.70;6.10;;;;;;;10.95;48.41;101693.49;145036;1259;98380;-82
2023/02/13 03:53:37;;;;;;;8.00;5.80;;;;;;;10.94;48.40;101690.35;144825;1257;97928;-82
2023/02/13 04:00:45;;;;;;;9.40;5.90;;;;;;;10.94;48.41;101694.86;145011;1257;111900;-82
2023/02/13 04:04:11;;;;;;;8.90;6.10;;;;;;;10.93;48.57;101695.87;144844;1259;112184;-82
2023/02/13 04:07:34;;;;;;;10.20;6.00;;;;;;;10.91;48.60;101685.87;145106;1257;111174;-81
2023/02/13 04:11:11;;;;;;;9.70;5.80;;;;;;;10.91;48.45;101681.16;144968;1270;98824;-82
2023/02/13 04:14:49;;;;;;;9.80;6.60;;;;;;;10.91;48.60;101686.20;144886;1256;109822;-83
2023/02/13 04:18:32;;;;;;;7.90;6.10;;;;;;;10.90;48.67;101686.49;145031;1257;111226;-82
2023/02/13 04:21:56;;;;;;;9.40;6.20;;;;;;;10.90;48.59;101688.94;144860;1259;111096;-82
2023/02/13 04:25:19;;;;;;;8.30;5.80;;;;;;;10.90;48.60;101690.34;144912;1259;112193;-83
2023/02/13 04:28:40;;;;;;;9.50;5.80;;;;;;;10.90;48.86;101688.09;144667;1263;98724;-81
2023/02/13 04:32:02;;;;;;;12.30;7.30;;;;;;;10.91;48.83;101694.04;145032;1259;97987;-83
2023/02/13 04:35:24;;;;;;;6.90;5.40;;;;;;;10.90;48.91;101692.23;144927;1259;102202;-82
2023/02/13 04:38:46;;;;;;;10.70;5.70;;;;;;;10.90;48.88;101696.05;145038;1262;99219;-81
2023/02/13 04:42:08;;;;;;;9.10;5.80;;;;;;;10.90;48.92;101699.02;145103;1257;99517;-83
2023/02/13 04:45:31;;;;;;;7.60;5.70;;;;;;;10.89;48.89;101696.38;144803;1257;107543;-82
2023/02/13 04:48:53;;;;;;;8.10;5.20;;;;;;;10.89;48.75;101695.17;144860;1263;98024;-83
2023/02/13 04:52:15;;;;;;;9.90;6.00;;;;;;;10.88;49.03;101697.23;145183;1259;97977;-82
2023/02/13 04:55:43;;;;;;;13.10;5.60;;;;;;;10.88;48.82;101698.63;144794;1261;99124;-82
2023/02/13 04:59:05;;;;;;;10.30;6.40;;;;;;;10.88;48.78;101700.71;145154;1259;97909;-82
2023/02/13 05:02:27;;;;;;;9.10;6.20;;;;;;;10.89;48.84;101695.86;145034;1260;98777;-82
2023/02/13 05:05:49;;;;;;;10.50;5.60;;;;;;;10.88;48.86;101689.23;144876;1262;98444;-82
2023/02/13 05:09:11;;;;;;;11.80;6.30;;;;;;;10.88;48.96;101686.80;144836;1256;98396;-81
2023/02/13 05:12:43;;;;;;;12.90;6.80;;;;;;;10.88;49.21;101682.60;144915;1256;98028;-80
2023/02/13 05:16:05;;;;;;;8.40;5.90;;;;;;;10.87;49.02;101681.54;144969;1261;98065;-81
2023/02/13 05:19:28;;;;;;;7.10;6.30;;;;;;;10.87;49.12;101682.92;145012;1259;97979;-81
2023/02/13 05:26:32;;;;;;;12.10;6.50;;;;;;;10.88;49.22;101691.83;144926;1268;111172;-83
2023/02/13 05:29:54;;;;;;;10.60;6.10;;;;;;;10.88;49.11;101693.05;145071;1260;97892;-80
2023/02/13 05:33:16;;;;;;;6.80;5.40;;;;;;;10.89;49.12;101691.67;144918;1260;99272;-81
2023/02/13 05:36:49;;;;;;;9.60;6.60;;;;;;;10.89;49.10;101694.45;145169;1261;101206;-81
2023/02/13 05:40:12;;;;;;;7.30;5.70;;;;;;;10.89;49.03;101698.83;144936;1263;103138;-82
2023/02/13 05:43:34;;;;;;;7.70;5.60;;;;;;;10.88;49.03;101697.05;144904;1260;97896;-82
2023/02/13 05:46:56;;;;;;;10.70;6.30;;;;;;;10.88;49.25;101698.45;145011;1256;97928;-82
2023/02/13 05:50:18;;;;;;;12.30;6.60;;;;;;;10.89;49.22;101703.87;144804;1262;99601;-81
2023/02/13 05:53:53;;;;;;;7.90;5.90;;;;;;;10.88;49.19;101707.85;144934;1257;107490;-83
2023/02/13 05:57:16;;;;;;;7.00;5.50;;;;;;;10.89;49.25;101714.98;144778;1257;99239;-81
2023/02/13 06:00:38;;;;;;;11.30;6.30;;;;;;;10.90;49.32;101718.66;145185;1262;99230;-81
2023/02/13 06:04:00;;;;;;;7.80;5.50;;;;;;;10.90;49.30;101718.85;144925;1263;99222;-83
2023/02/13 06:07:24;;;;;;;7.80;6.20;;;;;;;10.89;49.34;101716.38;145047;1263;98913;-83
2023/02/13 06:10:47;;;;;;;6.80;5.20;;;;;;;10.89;49.14;101714.98;145240;1280;97955;-82
2023/02/13 06:14:12;;;;;;;10.40;6.40;;;;;;;10.89;49.33;101721.79;144750;1267;97948;-81
2023/02/13 06:17:34;;;;;;;9.90;6.40;;;;;;;10.90;49.22;101714.69;144918;1260;97908;-82
2023/02/13 06:20:59;;;;;;;11.00;6.80;;;;;;;10.90;49.24;101713.28;145177;1263;97909;-83
2023/02/13 06:24:20;;;;;;;9.80;5.90;;;;;;;10.90;49.33;101705.30;145140;1260;97926;-83
2023/02/13 06:27:46;;;;;;;7.90;5.70;;;;;;;10.91;49.36;101704.11;144971;1260;97942;-84
2023/02/13 06:31:08;;;;;;;8.60;6.30;;;;;;;10.91;49.38;101703.95;144774;1262;97938;-83
2023/02/13 06:34:30;;;;;;;11.70;6.60;;;;;;;10.91;49.31;101710.91;144996;1263;97994;-82
2023/02/13 06:37:54;;;;;;;9.90;5.90;;;;;;;10.91;49.45;101714.91;144913;1259;111312;-83
2023/02/13 06:41:16;;;;;;;7.50;5.90;;;;;;;10.91;49.58;101715.08;144905;1257;97929;-82
2023/02/13 06:44:38;;;;;;;7.40;6.10;;;;;;;10.91;49.41;101723.77;145002;1259;98328;-81
2023/02/13 06:48:00;;;;;;;11.20;6.50;;;;;;;10.91;49.59;101717.54;144909;1260;101720;-82
2023/02/13 06:51:22;;;;;;;9.70;6.90;;;;;;;10.91;49.64;101722.94;144862;1260;98446;-83
2023/02/13 06:54:44;;;;;;;12.50;6.80;;;;;;;10.91;49.51;101724.99;145515;1259;98059;-83
2023/02/13 06:58:08;;;;;;;7.20;5.00;;;;;;;10.92;49.32;101724.15;144917;1257;107486;-81
2023/02/13 07:01:33;;;;;;;8.20;6.30;;;;;;;10.92;49.55;101728.54;144806;1258;107500;-84
2023/02/13 07:05:02;;;;;;;8.80;5.90;;;;;;;10.93;49.77;101727.52;144763;1261;97912;-82
2023/02/13 07:08:27;;;;;;;9.60;6.90;;;;;;;10.94;49.34;101723.91;144815;1270;107554;-81
2023/02/13 07:11:52;;;;;;;7.60;6.10;;;;;;;10.96;49.63;101714.27;145051;1256;98395;-81
2023/02/13 07:15:24;;;;;;;9.60;6.00;;;;;;;10.99;49.55;101710.05;144775;1262;107541;-82
2023/02/13 07:18:46;;;;;;;8.20;6.20;;;;;;;11.04;49.83;101712.34;145060;1260;97987;-82
2023/02/13 07:22:08;;;;;;;7.40;5.40;;;;;;;11.12;49.51;101715.09;144991;1261;97845;-81
2023/02/13 07:25:37;;;;;;;7.80;5.90;;;;;;;11.27;49.50;101714.20;144956;1260;98849;-82
2023/02/13 07:29:04;;;;;;;7.60;6.30;;;;;;;11.50;49.31;101719.14;145089;1260;98005;-82
2023/02/13 07:32:34;;;;;;;7.30;5.90;;;;;;;11.70;48.95;101717.02;145051;1260;97924;-82
2023/02/13 07:36:02;;;;;;;11.50;5.50;;;;;;;11.87;48.98;101718.56;145175;1259;97925;-83
2023/02/13 07:39:24;;;;;;;5.80;5.20;;;;;;;12.09;48.60;101728.70;144844;1260;97916;-82
2023/02/13 07:46:44;;;;;;;8.00;5.60;;;;;;;12.30;48.24;101736.48;144467;1268;98065;-82
2023/02/13 07:50:07;;;;;;;8.20;5.30;;;;;;;12.41;48.01;101737.94;144456;1268;99465;-83
2023/02/13 07:53:32;;;;;;;7.60;5.70;;;;;;;12.47;48.01;101732.05;144430;1262;97989;-84
2023/02/13 07:57:03;;;;;;;6.70;5.30;;;;;;;12.48;47.90;101726.49;144361;1267;98524;-84
2023/02/13 08:00:28;;;;;;;8.60;6.10;;;;;;;12.47;47.68;101727.85;144386;1262;98155;-83
2023/02/13 08:03:52;;;;;;;6.50;5.40;;;;;;;12.41;47.81;101726.26;144302;1268;99068;-83
2023/02/13 08:07:24;;;;;;;6.80;5.30;;;;;;;12.36;47.78;101729.39;144139;1268;98098;-83
2023/02/13 08:14:48;;;;;;;5.70;5.10;;;;;;;12.31;47.90;101729.16;144297;1267;98255;-82
2023/02/13 08:18:17;;;;;;;6.50;5.10;;;;;;;12.31;47.97;101725.32;144294;1271;97983;-84
2023/02/13 08:21:44;;;;;;;7.20;5.80;;;;;;;12.30;47.92;101713.29;144325;1270;98905;-82
2023/02/13 08:25:09;;;;;;;7.90;5.60;;;;;;;12.32;47.89;101708.27;144748;1279;97957;-82
2023/02/13 08:28:31;;;;;;;5.80;4.80;;;;;;;12.35;48.13;101707.20;145039;1259;97954;-84
2023/02/13 08:31:53;;;;;;;8.50;4.90;;;;;;;12.41;47.91;101709.14;144888;1260;99205;-83
2023/02/13 08:35:16;;;;;;;8.80;5.50;;;;;;;12.48;47.97;101710.10;145063;1270;98056;-82
2023/02/13 08:38:37;;;;;;;7.30;4.60;;;;;;;12.54;47.89;101710.16;144976;1260;111033;-83
2023/02/13 08:42:04;;;;;;;9.00;5.20;;;;;;;12.61;47.80;101707.64;145085;1257;111227;-81
2023/02/13 08:45:26;;;;;;;6.20;4.80;;;;;;;12.74;47.59;101705.48;144843;1270;99233;-84
2023/02/13 08:48:49;;;;;;;5.90;4.10;;;;;;;12.93;47.53;101699.71;145485;1260;97928;-85
2023/02/13 08:52:11;;;;;;;5.40;4.30;;;;;;;13.16;47.33;101699.65;145113;1264;102405;-84
2023/02/13 08:55:33;;;;;;;4.10;3.70;;;;;;;13.34;47.18;101696.95;145236;1260;98434;-84
2023/02/13 08:58:55;;;;;;;6.00;3.50;;;;;;;13.41;47.06;101693.35;145376;1261;97995;-84
2023/02/13 09:02:16;;;;;;;5.60;3.50;;;;;;;13.42;46.98;101692.30;145172;1270;106244;-77
2023/02/13 09:05:38;;;;;;;4.20;3.70;;;;;;;13.37;46.81;101694.09;145167;1260;98020;-79
2023/02/13 09:09:00;;;;;;;4.10;3.60;;;;;;;13.30;46.67;101693.49;145390;1258;97957;-78
2023/02/13 09:12:22;;;;;;;4.60;3.30;;;;;;;13.21;46.70;101692.27;144728;1270;97928;-78
2023/02/13 09:15:44;;;;;;;4.10;3.70;;;;;;;13.13;46.95;101695.86;145214;1269;98000;-79
2023/02/13 09:19:06;;;;;;;5.30;3.90;;;;;;;13.07;47.01;101689.88;144921;1260;98898;-79
2023/02/13 09:22:28;;;;;;;3.50;3.10;;;;;;;13.03;47.12;101692.54;145298;1260;99190;-77
2023/02/13 09:25:51;;;;;;;4.20;3.30;;;;;;;13.00;47.05;101700.64;145134;1260;97983;-78
2023/02/13 09:29:13;;;;;;;4.70;3.20;;;;;;;12.98;47.08;101701.61;145092;1260;97915;-79
2023/02/13 09:32:36;;;;;;;7.10;3.70;;;;;;;12.93;47.24;101700.40;144920;1270;97998;-80
2023/02/13 09:35:58;;;;;;;3.20;2.90;;;;;;;12.88;47.20;101699.17;144768;1260;111137;-79
2023/02/13 09:39:20;;;;;;;5.30;2.90;;;;;;;12.84;47.40;101699.55;145250;1267;97905;-79
2023/02/13 09:42:42;;;;;;;5.40;3.10;;;;;;;12.82;47.51;101702.26;145212;1261;97929;-80
2023/02/13 09:46:11;;;;;;;4.20;3.20;;;;;;;12.83;47.49;101697.09;144924;1260;213265;-79
2023/02/13 09:49:38;;;;;;;3.10;2.60;;;;;;;12.90;47.54;101696.80;145139;1260;102303;-80
2023/02/13 09:53:00;;;;;;;4.50;3.50;;;;;;;13.01;47.37;101688.98;144915;1257;101981;-80
2023/02/13 09:56:39;;;;;;;4.50;2.40;;;;;;;13.08;47.27;101690.27;145280;1261;97921;-78
2023/02/13 10:00:22;;;;;;;3.20;2.90;;;;;;;13.13;47.13;101687.30;145030;1263;102258;-77
2023/02/13 10:04:13;;;;;;;7.60;3.50;;;;;;;13.22;47.26;101690.39;144702;1270;101951;-78
2023/02/13 10:07:48;;;;;;;3.90;2.40;;;;;;;13.31;47.12;101691.41;144913;1262;103326;-78
2023/02/13 10:11:34;;;;;;;3.10;2.80;;;;;;;13.40;47.36;101698.54;144959;1258;101822;-78
2023/02/13 10:15:22;;;;;;;3.40;2.70;;;;;;;13.49;47.04;101704.95;144916;1260;103021;-79
2023/02/13 10:18:55;;;;;;;5.30;3.50;;;;;;;13.44;47.50;101707.58;145437;1260;103270;-80
2023/02/13 10:22:19;;;;;;;5.10;3.50;;;;;;;13.29;47.85;101707.58;144733;1263;102257;-81
2023/02/13 10:26:03;;;;;;;4.10;3.70;;;;;;;13.10;48.13;101707.45;145069;1257;102114;-83
2023/02/13 10:30:08;;;;;;;4.40;3.00;;;;;;;12.89;48.73;101704.27;145086;1257;101945;-80
2023/02/13 10:33:38;;;;;;;5.40;3.40;;;;;;;12.72;49.28;101706.79;143971;1271;102293;-79
2023/02/13 10:37:06;;;;;;;5.90;3.40;;;;;;;12.55;49.54;101698.36;144484;1266;102033;-92
2023/02/13 10:40:32;;;;;;;7.20;3.60;;;;;;;12.41;49.81;101698.18;144007;1268;102177;-81
2023/02/13 10:44:27;;;;;;;7.00;3.40;;;;;;;12.33;50.20;101688.81;144021;1269;102199;-83
2023/02/13 10:48:18;;;;;;;5.00;3.70;;;;;;;12.32;50.67;101682.16;143551;1270;102313;-81
2023/02/13 10:52:05;;;;;;;5.70;3.90;;;;;;;12.48;50.84;101682.04;143450;1277;102197;-80
2023/02/13 10:56:15;;;;;;;4.80;3.60;;;;;;;12.68;50.15;101672.99;143481;1273;101997;-79
2023/02/13 10:59:43;;;;;;;4.30;3.60;;;;;;;12.93;50.06;101670.21;142634;1283;102420;-81
2023/02/13 11:03:16;;;;;;;3.80;3.00;;;;;;;13.14;50.03;101676.88;142504;1283;103227;-82
2023/02/13 11:06:45;;;;;;;3.40;2.80;;;;;;;13.33;49.90;101680.84;142728;1283;103320;-82
2023/02/13 11:10:17;;;;;;;;;;;;;;;13.47;49.56;101677.30;143085;1277;103328;-85
2023/02/13 11:13:41;;;;;;;5.30;3.10;;;;;;;13.52;49.38;101677.79;143601;1284;102280;-86
2023/02/13 11:17:05;;;;;;;4.50;3.10;;;;;;;13.54;49.19;101671.39;143603;1277;102224;-82
2023/02/13 11:20:31;;;;;;;3.80;2.90;;;;;;;13.56;49.19;101664.64;143701;1284;101168;-83
2023/02/13 11:23:55;;;;;;;2.60;2.40;;;;;;;13.59;49.00;101662.13;143887;1270;101007;-82
2023/02/13 11:27:23;;;;;;;3.90;3.20;;;;;;;13.64;49.02;101666.65;144196;1269;101972;-80
2023/02/13 11:30:47;;;;;;;6.40;2.70;;;;;;;13.65;48.90;101663.55;144199;1265;102294;-78
2023/02/13 11:34:21;;;;;;;4.60;3.10;;;;;;;13.69;48.84;101656.69;144232;1270;103640;-80
2023/02/13 11:37:43;;;;;;;4.20;3.20;;;;;;;13.70;48.65;101663.20;145194;1260;102247;-80
2023/02/13 11:41:11;;;;;;;3.40;2.90;;;;;;;13.71;48.63;101659.53;145250;1260;97919;-77
2023/02/13 11:44:33;;;;;;;3.50;3.00;;;;;;;13.70;48.58;101659.70;144725;1261;102192;-80
2023/02/13 11:47:55;;;;;;;3.50;2.80;;;;;;;13.67;48.41;101652.41;144992;1261;99485;-79
2023/02/13 11:51:17;;;;;;;3.20;2.90;;;;;;;13.60;48.23;101652.56;145142;1257;98414;-79
2023/02/13 11:54:43;;;;;;;4.60;3.40;;;;;;;13.53;48.33;101650.60;145150;1256;106532;-79
2023/02/13 11:58:14;;;;;;;3.50;3.00;;;;;;;13.52;48.23;101646.18;145199;1261;107319;-81
2023/02/13 12:01:37;;;;;;;6.00;3.20;;;;;;;13.48;48.51;101644.67;145201;1257;108429;-83
2023/02/13 12:05:16;;;;;;;3.40;3.10;;;;;;;13.46;48.29;101640.77;145416;1256;98030;-83
2023/02/13 12:08:40;;;;;;;5.30;3.20;;;;;;;13.39;48.41;101636.70;145069;1260;107410;-81
2023/02/13 12:12:05;;;;;;;4.40;3.50;;;;;;;13.36;48.55;101619.31;145214;1260;107477;-81
2023/02/13 12:15:31;;;;;;;3.60;2.80;;;;;;;13.38;48.46;101616.40;145260;1256;108018;-81
2023/02/13 12:18:57;;;;;;;4.80;4.40;;;;;;;13.51;48.49;101605.98;145105;1256;107434;-84
2023/02/13 12:22:35;;;;;;;3.50;2.90;;;;;;;13.71;48.53;101607.64;145174;1260;107238;-82
2023/02/13 12:26:12;;;;;;;3.20;2.90;;;;;;;13.83;48.48;101609.57;145190;1260;108150;-77
2023/02/13 12:29:50;;;;;;;5.60;4.30;;;;;;;13.86;48.39;101607.06;145389;1258;107591;-79
2023/02/13 12:34:00;;;;;;;3.20;2.90;;;;;;;13.91;48.36;101609.30;145039;1261;107082;-80
2023/02/13 12:37:31;;;;;;;3.50;2.80;;;;;;;13.88;48.20;101608.86;144484;1270;107529;-79
2023/02/13 12:40:56;;;;;;;3.60;2.70;;;;;;;13.86;48.25;101611.58;144361;1263;107630;-79
2023/02/13 12:44:31;;;;;;;4.10;3.00;;;;;;;13.81;48.24;101604.26;144457;1267;107549;-87
2023/02/13 12:48:10;;;;;;;3.10;2.60;;;;;;;13.77;50.11;101596.11;144362;1268;107767;-83
2023/02/13 12:52:06;;;;;;;4.80;3.40;;;;;;;13.77;51.27;101594.52;144474;1263;107451;-87
2023/02/13 12:55:43;;;;;;;5.10;2.80;;;;;;;13.76;52.60;101592.07;144425;1270;108094;-87
2023/02/13 12:59:10;;;;;;;4.50;3.10;;;;;;;13.77;53.29;101581.10;144275;1264;107536;-84
2023/02/13 13:03:02;;;;;;;4.30;3.30;;;;;;;13.74;53.57;101578.90;144484;1265;107702;-83
2023/02/13 13:06:48;;;;;;;4.90;3.40;;;;;;;13.76;54.17;101578.59;144397;1268;107100;-86
2023/02/13 13:10:46;;;;;;;5.30;3.10;;;;;;;13.75;54.39;101561.27;144616;1264;107486;-85
2023/02/13 13:14:17;;;;;;;4.40;3.70;;;;;;;13.84;54.71;101550.70;144965;1270;108239;-84
2023/02/13 13:18:01;;;;;;;4.30;3.60;;;;;;;13.91;54.68;101555.98;145135;1259;107471;-85
2023/02/13 13:21:40;;;;;;;3.70;3.40;;;;;;;13.95;54.52;101545.95;145199;1255;107137;-84
2023/02/13 13:25:18;;;;;;;6.20;5.50;;;;;;;14.00;54.54;101539.62;145239;1256;107265;-85
2023/02/13 13:28:42;;;;;;;6.10;4.30;;;;;;;14.06;54.35;101542.27;145647;1257;107528;-84
2023/02/13 13:32:10;;;;;;;4.50;4.10;;;;;;;14.11;54.09;101547.98;145086;1256;107567;-82
2023/02/13 13:35:32;;;;;;;8.80;4.60;;;;;;;14.07;53.88;101540.02;145094;1256;107350;-86
2023/02/13 13:39:00;;;;;;;6.70;4.00;;;;;;;13.97;53.74;101539.38;145028;1259;98023;-83
2023/02/13 13:42:38;;;;;;;8.00;4.50;;;;;;;13.95;54.04;101545.09;145455;1257;107644;-87
2023/02/13 13:46:27;;;;;;;4.80;3.40;;;;;;;13.88;53.63;101546.45;144909;1261;108466;-88
2023/02/13 13:50:00;;;;;;;8.60;4.40;;;;;;;13.72;53.56;101541.64;144925;1275;108255;-86
2023/02/13 13:53:22;;;;;;;5.50;4.00;;;;;;;13.67;53.65;101546.73;145113;1261;107287;-89
2023/02/13 13:57:00;;;;;;;6.80;3.70;;;;;;;13.70;53.63;101544.88;145154;1259;98026;-88
2023/02/13 14:08:54;;;;;;;6.90;4.50;;;;;;;13.82;53.57;101522.68;144351;1269;106343;-87
2023/02/13 14:12:28;;;;;;;3.80;3.40;;;;;;;13.82;53.46;101531.79;143474;1274;107405;-84
2023/02/13 14:15:51;;;;;;;7.10;4.60;;;;;;;13.75;53.05;101532.98;143586;1273;107122;-80
2023/02/13 14:19:36;;;;;;;7.30;4.20;;;;;;;13.47;52.43;101532.14;143314;1278;97998;-79
2023/02/13 14:23:15;;;;;;;8.30;5.30;;;;;;;13.07;52.20;101532.45;143400;1273;107662;-79
2023/02/13 14:26:38;;;;;;;8.20;5.30;;;;;;;12.74;51.97;101514.27;143558;1277;107482;-79
2023/02/13 14:30:04;;;;;;;9.40;6.00;;;;;;;12.47;52.02;101515.28;143356;1274;107228;-79
2023/02/13 14:33:29;;;;;;;9.00;5.50;;;;;;;12.23;52.24;101512.56;143830;1277;107418;-80
2023/02/13 14:37:09;;;;;;;11.90;5.50;;;;;;;12.07;52.26;101514.41;143489;1279;107671;-81
2023/02/13 14:40:45;;;;;;;9.50;5.20;;;;;;;11.89;52.51;101521.11;144520;1273;107711;-92
2023/02/13 14:44:50;;;;;;;6.00;5.10;;;;;;;11.76;52.59;101523.23;145091;1272;106644;-90
2023/02/13 14:48:14;;;;;;;5.10;4.50;;;;;;;11.67;52.66;101519.73;143569;1273;105670;-82
2023/02/13 14:51:45;;;;;;;7.90;6.00;;;;;;;11.56;52.80;101514.63;143577;1276;107555;-85
2023/02/13 14:55:14;;;;;;;8.40;5.90;;;;;;;11.48;52.75;101516.58;143670;1278;107522;-82
2023/02/13 14:58:41;;;;;;;;;;;;;;;11.42;52.94;101515.98;143413;1279;108577;-83
2023/02/13 15:02:15;;;;;;;6.30;4.10;;;;;;;11.32;53.08;101515.65;143385;1276;107502;-80
2023/02/13 15:05:37;;;;;;;11.20;4.20;;;;;;;11.24;52.94;101505.23;143661;1275;106542;-85
2023/02/13 15:09:01;;;;;;;6.50;4.90;;;;;;;11.18;53.12;101503.92;143576;1279;98097;-85
2023/02/13 15:12:32;;;;;;;6.70;4.70;;;;;;;11.12;53.41;101500.58;144017;1276;98135;-85
2023/02/13 15:16:00;;;;;;;11.00;5.30;;;;;;;11.06;53.28;101487.63;143434;1276;107223;-85
2023/02/13 15:19:23;;;;;;;11.70;5.80;;;;;;;11.01;53.46;101493.54;143752;1279;107176;-85
2023/02/13 15:22:45;;;;;;;5.60;4.40;;;;;;;10.94;53.42;101492.40;143465;1276;98016;-86
2023/02/13 15:26:16;;;;;;;5.40;4.90;;;;;;;10.87;53.64;101487.77;143497;1277;98132;-84
2023/02/13 15:30:03;;;;;;;10.90;5.00;;;;;;;10.80;53.57;101467.85;143622;1275;107580;-87
2023/02/13 15:33:47;;;;;;;5.90;4.50;;;;;;;10.75;53.69;101473.70;143596;1276;106610;-84
2023/02/13 15:37:19;;;;;;;8.40;4.10;;;;;;;10.70;53.77;101474.89;143497;1276;106677;-83
2023/02/13 15:40:43;;;;;;;5.60;4.60;;;;;;;10.65;53.77;101471.05;143871;1277;107748;-89
2023/02/13 15:44:05;;;;;;;9.20;4.60;;;;;;;10.63;53.98;101474.94;143721;1273;106649;-81
2023/02/13 15:47:30;;;;;;;5.80;4.40;;;;;;;10.60;54.00;101484.91;143627;1275;98037;-81
2023/02/13 15:50:52;;;;;;;7.20;5.10;;;;;;;10.58;54.26;101483.27;143212;1279;98078;-80
2023/02/13 15:54:25;;;;;;;7.60;4.40;;;;;;;10.56;54.27;101479.02;143405;1278;97947;-81
2023/02/13 15:57:48;;;;;;;8.10;4.00;;;;;;;10.52;54.29;101493.98;143491;1278;107624;-81
2023/02/13 16:01:11;;;;;;;7.80;4.50;;;;;;;10.50;54.42;101495.61;143363;1277;107214;-80
2023/02/13 16:09:32;;;;;;;6.80;3.90;;;;;;;10.47;54.21;101491.83;142224;1288;107629;-81
2023/02/13 16:12:56;;;;;;;6.20;4.70;;;;;;;10.45;54.23;101504.64;142228;1288;108266;-81
2023/02/13 16:16:18;;;;;;;7.30;4.60;;;;;;;10.44;54.24;101489.80;142321;1288;108075;-82
2023/02/13 16:20:02;;;;;;;6.80;4.00;;;;;;;10.42;54.18;101491.80;143652;1288;98111;-82
2023/02/13 16:23:24;;;;;;;12.30;3.50;;;;;;;10.38;54.14;101482.77;142382;1283;107999;-82
2023/02/13 16:26:51;;;;;;;8.80;4.10;;;;;;;10.36;54.09;101491.42;142248;1288;98184;-90
2023/02/13 16:30:39;;;;;;;4.80;3.20;;;;;;;10.32;54.12;101487.05;144127;1285;107924;-95
2023/02/13 16:34:13;;;;;;;6.40;3.50;;;;;;;10.30;54.22;101495.13;142383;1279;105671;-83
2023/02/13 16:37:34;;;;;;;4.00;3.00;;;;;;;10.43;54.20;101508.92;142560;1282;106945;-82
2023/02/13 16:41:18;;;;;;;6.50;3.60;;;;;;;10.63;53.95;101512.48;142624;1279;98961;-79
2023/02/13 16:44:40;;;;;;;4.90;3.80;;;;;;;10.83;53.76;101522.70;142784;1285;107600;-78
2023/02/13 16:48:02;;;;;;;9.30;3.50;;;;;;;10.96;53.52;101525.00;143402;1276;98056;-83
2023/02/13 16:51:39;;;;;;;5.80;3.20;;;;;;;11.07;53.26;101524.93;143520;1279;98121;-79
2023/02/13 16:55:03;;;;;;;5.00;3.30;;;;;;;11.17;53.07;101526.18;143520;1278;98904;-83